sensor_id;sensor_type;location;lat;lon;timestamp;P1;durP1;ratioP1;P2;durP2;ratioP2
55603;SDS011;41468;48.838;9.330;2023-06-26T00:01:40;5.88;;;5.28;;
55603;SDS011;41468;48.838;9.330;2023-06-26T00:04:07;7.10;;;5.13;;
55603;SDS011;41468;48.838;9.330;2023-06-26T00:06:34;5.60;;;5.10;;
55603;SDS011;41468;48.838;9.330;2023-06-26T00:09:00;5.53;;;5.03;;
55603;SDS011;41468;48.838;9.330;2023-06-26T00:11:27;5.97;;;5.47;;
55603;SDS011;41468;48.838;9.330;2023-06-26T00:13:57;6.10;;;5.60;;
55603;SDS011;41468;48.838;9.330;2023-06-26T00:16:24;5.57;;;5.07;;
55603;SDS011;41468;48.838;9.330;2023-06-26T00:18:51;6.20;;;5.60;;
55603;SDS011;41468;48.838;9.330;2023-06-26T00:21:17;5.50;;;5.00;;
55603;SDS011;41468;48.838;9.330;2023-06-26T00:23:45;10.77;;;5.35;;
55603;SDS011;41468;48.838;9.330;2023-06-26T00:26:12;5.93;;;5.43;;
55603;SDS011;41468;48.838;9.330;2023-06-26T00:28:39;5.65;;;5.15;;
55603;SDS011;41468;48.838;9.330;2023-06-26T00:31:06;5.97;;;5.47;;
55603;SDS011;41468;48.838;9.330;2023-06-26T00:33:33;8.38;;;5.53;;
55603;SDS011;41468;48.838;9.330;2023-06-26T00:35:59;6.07;;;5.47;;
55603;SDS011;41468;48.838;9.330;2023-06-26T00:38:31;6.13;;;5.53;;
55603;SDS011;41468;48.838;9.330;2023-06-26T00:41:03;6.43;;;5.32;;
55603;SDS011;41468;48.838;9.330;2023-06-26T00:54:58;5.15;;;4.75;;
55603;SDS011;41468;48.838;9.330;2023-06-26T00:57:26;6.75;;;5.80;;
55603;SDS011;41468;48.838;9.330;2023-06-26T00:59:53;5.50;;;5.03;;
55603;SDS011;41468;48.838;9.330;2023-06-26T01:02:20;6.00;;;5.47;;
55603;SDS011;41468;48.838;9.330;2023-06-26T01:04:48;6.22;;;5.63;;
55603;SDS011;41468;48.838;9.330;2023-06-26T01:07:16;7.00;;;5.72;;
55603;SDS011;41468;48.838;9.330;2023-06-26T01:09:46;6.65;;;5.15;;
55603;SDS011;41468;48.838;9.330;2023-06-26T01:12:14;5.72;;;5.22;;
55603;SDS011;41468;48.838;9.330;2023-06-26T01:14:41;5.97;;;5.47;;
55603;SDS011;41468;48.838;9.330;2023-06-26T01:17:08;5.85;;;5.35;;
55603;SDS011;41468;48.838;9.330;2023-06-26T01:19:40;6.57;;;5.60;;
55603;SDS011;41468;48.838;9.330;2023-06-26T01:28:18;5.75;;;5.15;;
55603;SDS011;41468;48.838;9.330;2023-06-26T01:30:46;5.53;;;5.03;;
55603;SDS011;41468;48.838;9.330;2023-06-26T01:33:14;6.22;;;5.63;;
55603;SDS011;41468;48.838;9.330;2023-06-26T01:35:41;6.07;;;5.47;;
55603;SDS011;41468;48.838;9.330;2023-06-26T01:38:12;6.07;;;5.47;;
55603;SDS011;41468;48.838;9.330;2023-06-26T01:40:39;5.90;;;5.40;;
55603;SDS011;41468;48.838;9.330;2023-06-26T01:43:08;5.97;;;5.45;;
55603;SDS011;41468;48.838;9.330;2023-06-26T01:45:42;6.80;;;5.53;;
55603;SDS011;41468;48.838;9.330;2023-06-26T01:48:12;5.80;;;5.30;;
55603;SDS011;41468;48.838;9.330;2023-06-26T01:50:39;6.28;;;5.55;;
55603;SDS011;41468;48.838;9.330;2023-06-26T01:53:12;6.00;;;5.40;;
55603;SDS011;41468;48.838;9.330;2023-06-26T01:55:50;6.25;;;5.53;;
55603;SDS011;41468;48.838;9.330;2023-06-26T01:58:22;6.18;;;5.65;;
55603;SDS011;41468;48.838;9.330;2023-06-26T02:00:51;5.82;;;5.40;;
55603;SDS011;41468;48.838;9.330;2023-06-26T02:03:19;6.10;;;5.60;;
55603;SDS011;41468;48.838;9.330;2023-06-26T02:05:46;6.03;;;5.45;;
55603;SDS011;41468;48.838;9.330;2023-06-26T02:21:53;6.38;;;5.75;;
55603;SDS011;41468;48.838;9.330;2023-06-26T02:34:57;7.15;;;6.20;;
55603;SDS011;41468;48.838;9.330;2023-06-26T02:37:24;9.27;;;5.68;;
55603;SDS011;41468;48.838;9.330;2023-06-26T02:39:51;6.07;;;5.57;;
55603;SDS011;41468;48.838;9.330;2023-06-26T02:42:18;6.07;;;5.53;;
55603;SDS011;41468;48.838;9.330;2023-06-26T02:44:44;7.05;;;5.80;;
55603;SDS011;41468;48.838;9.330;2023-06-26T02:47:11;6.55;;;5.93;;
55603;SDS011;41468;48.838;9.330;2023-06-26T02:49:38;6.32;;;5.72;;
55603;SDS011;41468;48.838;9.330;2023-06-26T02:52:05;7.60;;;5.47;;
55603;SDS011;41468;48.838;9.330;2023-06-26T02:54:32;6.72;;;6.03;;
55603;SDS011;41468;48.838;9.330;2023-06-26T02:56:59;5.57;;;5.07;;
55603;SDS011;41468;48.838;9.330;2023-06-26T02:59:26;6.35;;;5.65;;
55603;SDS011;41468;48.838;9.330;2023-06-26T03:01:52;6.18;;;5.57;;
55603;SDS011;41468;48.838;9.330;2023-06-26T03:04:19;6.82;;;5.80;;
55603;SDS011;41468;48.838;9.330;2023-06-26T03:06:48;6.47;;;5.88;;
55603;SDS011;41468;48.838;9.330;2023-06-26T03:09:15;6.15;;;5.55;;
55603;SDS011;41468;48.838;9.330;2023-06-26T03:11:42;6.53;;;5.88;;
55603;SDS011;41468;48.838;9.330;2023-06-26T03:14:09;7.75;;;5.32;;
55603;SDS011;41468;48.838;9.330;2023-06-26T03:16:36;6.18;;;5.57;;
55603;SDS011;41468;48.838;9.330;2023-06-26T03:19:03;5.78;;;5.28;;
55603;SDS011;41468;48.838;9.330;2023-06-26T03:21:31;5.68;;;5.18;;
55603;SDS011;41468;48.838;9.330;2023-06-26T03:23:59;7.28;;;5.75;;
55603;SDS011;41468;48.838;9.330;2023-06-26T03:26:25;6.70;;;5.45;;
55603;SDS011;41468;48.838;9.330;2023-06-26T03:28:59;6.07;;;5.47;;
55603;SDS011;41468;48.838;9.330;2023-06-26T03:31:25;6.35;;;5.72;;
55603;SDS011;41468;48.838;9.330;2023-06-26T03:33:52;6.28;;;5.68;;
55603;SDS011;41468;48.838;9.330;2023-06-26T03:36:19;6.18;;;5.57;;
55603;SDS011;41468;48.838;9.330;2023-06-26T03:38:46;6.65;;;5.95;;
55603;SDS011;41468;48.838;9.330;2023-06-26T03:41:13;6.53;;;5.93;;
55603;SDS011;41468;48.838;9.330;2023-06-26T03:43:40;5.82;;;5.32;;
55603;SDS011;41468;48.838;9.330;2023-06-26T03:46:06;6.60;;;6.00;;
55603;SDS011;41468;48.838;9.330;2023-06-26T03:48:33;6.75;;;5.60;;
55603;SDS011;41468;48.838;9.330;2023-06-26T03:51:00;6.00;;;5.25;;
55603;SDS011;41468;48.838;9.330;2023-06-26T03:53:28;6.28;;;5.68;;
55603;SDS011;41468;48.838;9.330;2023-06-26T03:55:55;5.82;;;5.32;;
55603;SDS011;41468;48.838;9.330;2023-06-26T03:58:22;5.72;;;5.22;;
55603;SDS011;41468;48.838;9.330;2023-06-26T04:00:49;6.15;;;5.55;;
55603;SDS011;41468;48.838;9.330;2023-06-26T04:03:15;6.25;;;5.55;;
55603;SDS011;41468;48.838;9.330;2023-06-26T04:05:42;6.00;;;5.50;;
55603;SDS011;41468;48.838;9.330;2023-06-26T04:08:09;7.22;;;5.72;;
55603;SDS011;41468;48.838;9.330;2023-06-26T04:10:43;6.07;;;5.50;;
55603;SDS011;41468;48.838;9.330;2023-06-26T04:13:11;6.15;;;5.55;;
55603;SDS011;41468;48.838;9.330;2023-06-26T04:15:38;6.80;;;6.15;;
55603;SDS011;41468;48.838;9.330;2023-06-26T04:18:05;6.30;;;5.70;;
55603;SDS011;41468;48.838;9.330;2023-06-26T04:20:32;6.40;;;5.50;;
55603;SDS011;41468;48.838;9.330;2023-06-26T04:23:01;7.88;;;5.50;;
55603;SDS011;41468;48.838;9.330;2023-06-26T04:25:28;6.40;;;5.80;;
55603;SDS011;41468;48.838;9.330;2023-06-26T04:27:55;6.82;;;5.10;;
55603;SDS011;41468;48.838;9.330;2023-06-26T04:30:22;5.88;;;5.38;;
55603;SDS011;41468;48.838;9.330;2023-06-26T04:32:49;6.07;;;5.53;;
55603;SDS011;41468;48.838;9.330;2023-06-26T04:35:16;6.28;;;5.68;;
55603;SDS011;41468;48.838;9.330;2023-06-26T04:37:43;6.45;;;5.88;;
55603;SDS011;41468;48.838;9.330;2023-06-26T04:40:21;5.45;;;4.97;;
55603;SDS011;41468;48.838;9.330;2023-06-26T04:42:47;8.43;;;5.85;;
55603;SDS011;41468;48.838;9.330;2023-06-26T04:45:14;5.65;;;5.15;;
55603;SDS011;41468;48.838;9.330;2023-06-26T04:47:41;8.32;;;5.82;;
55603;SDS011;41468;48.838;9.330;2023-06-26T04:50:08;6.63;;;5.63;;
55603;SDS011;41468;48.838;9.330;2023-06-26T04:52:35;5.80;;;5.30;;
55603;SDS011;41468;48.838;9.330;2023-06-26T04:55:02;5.88;;;5.03;;
55603;SDS011;41468;48.838;9.330;2023-06-26T04:57:30;6.30;;;5.05;;
55603;SDS011;41468;48.838;9.330;2023-06-26T04:59:56;5.63;;;5.13;;
55603;SDS011;41468;48.838;9.330;2023-06-26T05:02:23;7.05;;;6.35;;
55603;SDS011;41468;48.838;9.330;2023-06-26T05:04:50;8.63;;;7.82;;
55603;SDS011;41468;48.838;9.330;2023-06-26T05:07:17;9.10;;;8.07;;
55603;SDS011;41468;48.838;9.330;2023-06-26T05:09:44;8.25;;;7.45;;
55603;SDS011;41468;48.838;9.330;2023-06-26T05:12:10;8.45;;;7.53;;
55603;SDS011;41468;48.838;9.330;2023-06-26T05:14:50;6.43;;;5.93;;
55603;SDS011;41468;48.838;9.330;2023-06-26T05:17:17;7.40;;;6.10;;
55603;SDS011;41468;48.838;9.330;2023-06-26T05:19:44;6.13;;;5.53;;
55603;SDS011;41468;48.838;9.330;2023-06-26T05:22:12;6.45;;;5.85;;
55603;SDS011;41468;48.838;9.330;2023-06-26T05:24:51;6.53;;;5.32;;
55603;SDS011;41468;48.838;9.330;2023-06-26T05:27:21;6.28;;;5.68;;
55603;SDS011;41468;48.838;9.330;2023-06-26T05:30:00;6.50;;;5.70;;
55603;SDS011;41468;48.838;9.330;2023-06-26T05:32:39;6.13;;;5.53;;
55603;SDS011;41468;48.838;9.330;2023-06-26T05:35:07;7.43;;;5.55;;
55603;SDS011;41468;48.838;9.330;2023-06-26T05:37:39;6.50;;;5.38;;
55603;SDS011;41468;48.838;9.330;2023-06-26T05:40:19;6.22;;;5.53;;
55603;SDS011;41468;48.838;9.330;2023-06-26T05:42:46;5.95;;;5.40;;
55603;SDS011;41468;48.838;9.330;2023-06-26T05:45:14;6.15;;;5.60;;
55603;SDS011;41468;48.838;9.330;2023-06-26T05:47:41;5.88;;;5.05;;
55603;SDS011;41468;48.838;9.330;2023-06-26T05:50:13;5.95;;;5.35;;
55603;SDS011;41468;48.838;9.330;2023-06-26T05:52:47;5.68;;;5.07;;
55603;SDS011;41468;48.838;9.330;2023-06-26T05:55:14;5.43;;;4.88;;
55603;SDS011;41468;48.838;9.330;2023-06-26T05:57:42;5.85;;;5.35;;
55603;SDS011;41468;48.838;9.330;2023-06-26T06:00:09;6.13;;;5.63;;
55603;SDS011;41468;48.838;9.330;2023-06-26T06:02:37;5.70;;;5.20;;
55603;SDS011;41468;48.838;9.330;2023-06-26T06:05:04;5.97;;;5.47;;
55603;SDS011;41468;48.838;9.330;2023-06-26T06:07:32;5.40;;;4.90;;
55603;SDS011;41468;48.838;9.330;2023-06-26T06:10:00;5.78;;;5.30;;
55603;SDS011;41468;48.838;9.330;2023-06-26T06:12:32;6.00;;;5.43;;
55603;SDS011;41468;48.838;9.330;2023-06-26T06:14:59;6.53;;;5.80;;
55603;SDS011;41468;48.838;9.330;2023-06-26T06:17:25;5.50;;;5.00;;
55603;SDS011;41468;48.838;9.330;2023-06-26T06:19:52;5.80;;;5.25;;
55603;SDS011;41468;48.838;9.330;2023-06-26T06:22:19;6.32;;;5.57;;
55603;SDS011;41468;48.838;9.330;2023-06-26T06:24:46;5.82;;;5.32;;
55603;SDS011;41468;48.838;9.330;2023-06-26T06:27:15;7.22;;;5.20;;
55603;SDS011;41468;48.838;9.330;2023-06-26T06:29:42;9.57;;;5.25;;
55603;SDS011;41468;48.838;9.330;2023-06-26T06:32:09;7.40;;;5.18;;
55603;SDS011;41468;48.838;9.330;2023-06-26T06:34:36;6.07;;;5.47;;
55603;SDS011;41468;48.838;9.330;2023-06-26T06:37:03;5.93;;;4.95;;
55603;SDS011;41468;48.838;9.330;2023-06-26T06:39:34;8.80;;;5.28;;
55603;SDS011;41468;48.838;9.330;2023-06-26T06:42:01;5.45;;;4.95;;
55603;SDS011;41468;48.838;9.330;2023-06-26T06:44:33;5.88;;;5.38;;
55603;SDS011;41468;48.838;9.330;2023-06-26T06:47:00;6.07;;;5.03;;
55603;SDS011;41468;48.838;9.330;2023-06-26T06:49:27;6.38;;;5.78;;
55603;SDS011;41468;48.838;9.330;2023-06-26T06:51:54;5.88;;;5.30;;
55603;SDS011;41468;48.838;9.330;2023-06-26T06:54:20;6.15;;;5.55;;
55603;SDS011;41468;48.838;9.330;2023-06-26T06:56:47;7.38;;;5.20;;
55603;SDS011;41468;48.838;9.330;2023-06-26T06:59:18;5.68;;;5.18;;
55603;SDS011;41468;48.838;9.330;2023-06-26T07:01:45;5.88;;;4.88;;
55603;SDS011;41468;48.838;9.330;2023-06-26T07:04:12;6.28;;;4.90;;
55603;SDS011;41468;48.838;9.330;2023-06-26T07:06:39;5.43;;;5.03;;
55603;SDS011;41468;48.838;9.330;2023-06-26T07:09:06;7.00;;;5.45;;
55603;SDS011;41468;48.838;9.330;2023-06-26T07:11:33;7.25;;;5.00;;
55603;SDS011;41468;48.838;9.330;2023-06-26T07:14:00;5.93;;;5.32;;
55603;SDS011;41468;48.838;9.330;2023-06-26T07:16:33;6.00;;;5.15;;
55603;SDS011;41468;48.838;9.330;2023-06-26T07:19:00;6.10;;;5.60;;
55603;SDS011;41468;48.838;9.330;2023-06-26T07:21:27;6.97;;;4.93;;
55603;SDS011;41468;48.838;9.330;2023-06-26T07:23:54;6.35;;;5.70;;
55603;SDS011;41468;48.838;9.330;2023-06-26T07:26:20;5.55;;;5.07;;
55603;SDS011;41468;48.838;9.330;2023-06-26T07:29:08;6.00;;;5.50;;
55603;SDS011;41468;48.838;9.330;2023-06-26T07:31:35;5.70;;;5.20;;
55603;SDS011;41468;48.838;9.330;2023-06-26T07:34:02;5.97;;;5.45;;
55603;SDS011;41468;48.838;9.330;2023-06-26T07:36:28;5.80;;;5.30;;
55603;SDS011;41468;48.838;9.330;2023-06-26T07:38:55;5.35;;;4.95;;
55603;SDS011;41468;48.838;9.330;2023-06-26T07:41:22;5.28;;;4.88;;
55603;SDS011;41468;48.838;9.330;2023-06-26T07:43:49;5.68;;;5.10;;
55603;SDS011;41468;48.838;9.330;2023-06-26T07:46:27;5.70;;;5.20;;
55603;SDS011;41468;48.838;9.330;2023-06-26T07:48:54;5.93;;;5.15;;
55603;SDS011;41468;48.838;9.330;2023-06-26T07:51:21;7.25;;;5.03;;
55603;SDS011;41468;48.838;9.330;2023-06-26T07:53:48;5.88;;;5.30;;
55603;SDS011;41468;48.838;9.330;2023-06-26T07:56:15;6.05;;;4.97;;
55603;SDS011;41468;48.838;9.330;2023-06-26T07:58:42;5.40;;;4.90;;
55603;SDS011;41468;48.838;9.330;2023-06-26T08:01:09;7.47;;;5.22;;
55603;SDS011;41468;48.838;9.330;2023-06-26T08:03:36;5.78;;;5.20;;
55603;SDS011;41468;48.838;9.330;2023-06-26T08:06:03;7.60;;;4.95;;
55603;SDS011;41468;48.838;9.330;2023-06-26T08:08:30;5.00;;;4.55;;
55603;SDS011;41468;48.838;9.330;2023-06-26T08:10:57;5.35;;;4.95;;
55603;SDS011;41468;48.838;9.330;2023-06-26T08:13:24;5.10;;;4.70;;
55603;SDS011;41468;48.838;9.330;2023-06-26T08:15:51;5.65;;;4.75;;
55603;SDS011;41468;48.838;9.330;2023-06-26T08:18:22;5.18;;;4.78;;
55603;SDS011;41468;48.838;9.330;2023-06-26T08:20:49;5.20;;;4.80;;
55603;SDS011;41468;48.838;9.330;2023-06-26T08:23:16;5.13;;;4.70;;
55603;SDS011;41468;48.838;9.330;2023-06-26T08:25:43;5.50;;;5.00;;
55603;SDS011;41468;48.838;9.330;2023-06-26T08:28:10;5.03;;;4.63;;
55603;SDS011;41468;48.838;9.330;2023-06-26T08:30:37;5.93;;;5.00;;
55603;SDS011;41468;48.838;9.330;2023-06-26T08:33:04;4.95;;;4.45;;
55603;SDS011;41468;48.838;9.330;2023-06-26T08:35:31;5.55;;;4.57;;
55603;SDS011;41468;48.838;9.330;2023-06-26T08:38:03;6.22;;;4.78;;
55603;SDS011;41468;48.838;9.330;2023-06-26T08:40:30;4.85;;;4.45;;
55603;SDS011;41468;48.838;9.330;2023-06-26T08:42:58;6.47;;;4.40;;
55603;SDS011;41468;48.838;9.330;2023-06-26T08:45:29;6.95;;;4.35;;
55603;SDS011;41468;48.838;9.330;2023-06-26T08:48:08;4.60;;;4.20;;
55603;SDS011;41468;48.838;9.330;2023-06-26T08:50:35;4.55;;;4.20;;
55603;SDS011;41468;48.838;9.330;2023-06-26T08:53:09;5.03;;;4.63;;
55603;SDS011;41468;48.838;9.330;2023-06-26T08:55:58;5.45;;;4.43;;
55603;SDS011;41468;48.838;9.330;2023-06-26T08:58:26;7.47;;;4.30;;
55603;SDS011;41468;48.838;9.330;2023-06-26T09:00:53;4.65;;;4.18;;
55603;SDS011;41468;48.838;9.330;2023-06-26T09:03:22;4.38;;;4.03;;
55603;SDS011;41468;48.838;9.330;2023-06-26T09:05:51;7.35;;;4.10;;
55603;SDS011;41468;48.838;9.330;2023-06-26T09:08:18;6.85;;;4.18;;
55603;SDS011;41468;48.838;9.330;2023-06-26T09:10:45;4.55;;;4.15;;
55603;SDS011;41468;48.838;9.330;2023-06-26T09:13:23;14.25;;;4.53;;
55603;SDS011;41468;48.838;9.330;2023-06-26T09:15:55;3.88;;;3.60;;
55603;SDS011;41468;48.838;9.330;2023-06-26T09:18:22;3.78;;;3.47;;
55603;SDS011;41468;48.838;9.330;2023-06-26T09:20:49;5.93;;;4.10;;
55603;SDS011;41468;48.838;9.330;2023-06-26T09:23:17;9.07;;;4.10;;
55603;SDS011;41468;48.838;9.330;2023-06-26T09:25:44;4.43;;;4.13;;
55603;SDS011;41468;48.838;9.330;2023-06-26T09:28:14;4.90;;;4.00;;
55603;SDS011;41468;48.838;9.330;2023-06-26T09:30:41;4.43;;;4.13;;
55603;SDS011;41468;48.838;9.330;2023-06-26T09:33:14;4.60;;;4.20;;
55603;SDS011;41468;48.838;9.330;2023-06-26T09:35:43;4.50;;;4.10;;
55603;SDS011;41468;48.838;9.330;2023-06-26T09:38:11;5.32;;;4.30;;
55603;SDS011;41468;48.838;9.330;2023-06-26T09:40:39;4.70;;;4.05;;
55603;SDS011;41468;48.838;9.330;2023-06-26T09:43:07;4.82;;;4.30;;
55603;SDS011;41468;48.838;9.330;2023-06-26T09:45:36;4.78;;;4.20;;
55603;SDS011;41468;48.838;9.330;2023-06-26T09:48:03;4.50;;;4.07;;
55603;SDS011;41468;48.838;9.330;2023-06-26T09:50:35;4.43;;;4.03;;
55603;SDS011;41468;48.838;9.330;2023-06-26T09:53:07;5.60;;;4.03;;
55603;SDS011;41468;48.838;9.330;2023-06-26T09:55:37;6.85;;;4.15;;
55603;SDS011;41468;48.838;9.330;2023-06-26T09:58:04;7.25;;;4.60;;
55603;SDS011;41468;48.838;9.330;2023-06-26T10:00:32;4.90;;;4.15;;
55603;SDS011;41468;48.838;9.330;2023-06-26T10:02:59;4.28;;;3.72;;
55603;SDS011;41468;48.838;9.330;2023-06-26T10:05:27;6.53;;;4.25;;
55603;SDS011;41468;48.838;9.330;2023-06-26T10:07:54;7.20;;;3.65;;
55603;SDS011;41468;48.838;9.330;2023-06-26T10:10:22;6.07;;;3.97;;
55603;SDS011;41468;48.838;9.330;2023-06-26T10:12:51;3.90;;;3.60;;
55603;SDS011;41468;48.838;9.330;2023-06-26T10:15:23;4.05;;;3.70;;
55603;SDS011;41468;48.838;9.330;2023-06-26T10:17:51;4.20;;;3.70;;
55603;SDS011;41468;48.838;9.330;2023-06-26T10:20:22;5.95;;;4.00;;
55603;SDS011;41468;48.838;9.330;2023-06-26T10:22:51;4.45;;;4.05;;
55603;SDS011;41468;48.838;9.330;2023-06-26T10:25:21;4.50;;;4.20;;
55603;SDS011;41468;48.838;9.330;2023-06-26T10:27:52;4.80;;;3.95;;
55603;SDS011;41468;48.838;9.330;2023-06-26T10:30:26;5.20;;;3.90;;
55603;SDS011;41468;48.838;9.330;2023-06-26T10:32:57;4.13;;;3.83;;
55603;SDS011;41468;48.838;9.330;2023-06-26T10:35:30;4.53;;;4.13;;
55603;SDS011;41468;48.838;9.330;2023-06-26T10:38:12;7.40;;;4.40;;
55603;SDS011;41468;48.838;9.330;2023-06-26T10:40:40;8.23;;;4.72;;
55603;SDS011;41468;48.838;9.330;2023-06-26T10:43:08;6.20;;;4.47;;
55603;SDS011;41468;48.838;9.330;2023-06-26T10:45:36;5.13;;;4.50;;
55603;SDS011;41468;48.838;9.330;2023-06-26T10:48:04;7.03;;;4.53;;
55603;SDS011;41468;48.838;9.330;2023-06-26T10:50:42;4.55;;;4.15;;
55603;SDS011;41468;48.838;9.330;2023-06-26T10:55:37;7.82;;;4.35;;
55603;SDS011;41468;48.838;9.330;2023-06-26T10:58:28;8.68;;;4.53;;
55603;SDS011;41468;48.838;9.330;2023-06-26T11:03:47;4.82;;;4.38;;
55603;SDS011;41468;48.838;9.330;2023-06-26T11:06:19;5.70;;;4.35;;
55603;SDS011;41468;48.838;9.330;2023-06-26T11:08:48;8.98;;;4.60;;
55603;SDS011;41468;48.838;9.330;2023-06-26T11:14:20;7.65;;;4.53;;
55603;SDS011;41468;48.838;9.330;2023-06-26T11:16:48;5.13;;;4.63;;
55603;SDS011;41468;48.838;9.330;2023-06-26T11:19:19;6.70;;;4.88;;
55603;SDS011;41468;48.838;9.330;2023-06-26T11:21:47;6.28;;;4.60;;
55603;SDS011;41468;48.838;9.330;2023-06-26T11:24:14;6.70;;;4.80;;
55603;SDS011;41468;48.838;9.330;2023-06-26T11:26:41;5.57;;;4.30;;
55603;SDS011;41468;48.838;9.330;2023-06-26T11:29:15;5.10;;;4.45;;
55603;SDS011;41468;48.838;9.330;2023-06-26T11:31:41;8.02;;;4.50;;
55603;SDS011;41468;48.838;9.330;2023-06-26T11:34:12;5.45;;;4.65;;
55603;SDS011;41468;48.838;9.330;2023-06-26T11:36:41;5.95;;;4.90;;
55603;SDS011;41468;48.838;9.330;2023-06-26T11:39:09;5.55;;;4.55;;
55603;SDS011;41468;48.838;9.330;2023-06-26T11:41:37;6.57;;;4.43;;
55603;SDS011;41468;48.838;9.330;2023-06-26T11:44:07;5.13;;;4.63;;
55603;SDS011;41468;48.838;9.330;2023-06-26T11:46:38;6.43;;;4.60;;
55603;SDS011;41468;48.838;9.330;2023-06-26T11:49:05;6.35;;;4.60;;
55603;SDS011;41468;48.838;9.330;2023-06-26T11:51:33;5.35;;;4.82;;
55603;SDS011;41468;48.838;9.330;2023-06-26T11:54:01;4.38;;;4.00;;
55603;SDS011;41468;48.838;9.330;2023-06-26T11:56:29;5.97;;;4.72;;
55603;SDS011;41468;48.838;9.330;2023-06-26T12:01:32;6.30;;;4.93;;
55603;SDS011;41468;48.838;9.330;2023-06-26T12:04:01;4.03;;;3.72;;
55603;SDS011;41468;48.838;9.330;2023-06-26T12:06:31;4.55;;;4.18;;
55603;SDS011;41468;48.838;9.330;2023-06-26T12:09:04;6.25;;;4.53;;
55603;SDS011;41468;48.838;9.330;2023-06-26T12:11:32;5.50;;;4.85;;
55603;SDS011;41468;48.838;9.330;2023-06-26T12:14:01;5.75;;;4.25;;
55603;SDS011;41468;48.838;9.330;2023-06-26T12:16:30;5.13;;;4.30;;
55603;SDS011;41468;48.838;9.330;2023-06-26T12:18:59;6.40;;;4.60;;
55603;SDS011;41468;48.838;9.330;2023-06-26T12:21:43;5.22;;;4.63;;
55603;SDS011;41468;48.838;9.330;2023-06-26T12:24:13;5.25;;;4.75;;
55603;SDS011;41468;48.838;9.330;2023-06-26T12:26:44;8.27;;;4.50;;
55603;SDS011;41468;48.838;9.330;2023-06-26T12:29:13;10.15;;;4.60;;
55603;SDS011;41468;48.838;9.330;2023-06-26T12:31:44;6.97;;;4.75;;
55603;SDS011;41468;48.838;9.330;2023-06-26T12:34:15;6.35;;;4.53;;
55603;SDS011;41468;48.838;9.330;2023-06-26T12:36:46;7.80;;;4.75;;
55603;SDS011;41468;48.838;9.330;2023-06-26T12:39:19;9.20;;;4.65;;
55603;SDS011;41468;48.838;9.330;2023-06-26T12:41:54;5.40;;;4.57;;
55603;SDS011;41468;48.838;9.330;2023-06-26T12:44:27;11.43;;;4.50;;
55603;SDS011;41468;48.838;9.330;2023-06-26T12:46:57;7.75;;;4.80;;
55603;SDS011;41468;48.838;9.330;2023-06-26T12:49:31;6.65;;;4.93;;
55603;SDS011;41468;48.838;9.330;2023-06-26T12:52:05;5.43;;;4.20;;
55603;SDS011;41468;48.838;9.330;2023-06-26T12:54:33;5.82;;;4.70;;
55603;SDS011;41468;48.838;9.330;2023-06-26T12:57:01;5.07;;;4.45;;
55603;SDS011;41468;48.838;9.330;2023-06-26T12:59:30;6.00;;;4.63;;
55603;SDS011;41468;48.838;9.330;2023-06-26T13:01:58;7.43;;;4.40;;
55603;SDS011;41468;48.838;9.330;2023-06-26T13:04:25;9.75;;;4.65;;
55603;SDS011;41468;48.838;9.330;2023-06-26T13:06:52;4.53;;;4.13;;
55603;SDS011;41468;48.838;9.330;2023-06-26T13:09:21;4.50;;;4.10;;
55603;SDS011;41468;48.838;9.330;2023-06-26T13:11:49;5.00;;;4.60;;
55603;SDS011;41468;48.838;9.330;2023-06-26T13:14:16;4.55;;;4.20;;
55603;SDS011;41468;48.838;9.330;2023-06-26T13:16:42;7.35;;;4.68;;
55603;SDS011;41468;48.838;9.330;2023-06-26T13:19:09;5.80;;;4.05;;
55603;SDS011;41468;48.838;9.330;2023-06-26T13:21:36;8.95;;;4.63;;
55603;SDS011;41468;48.838;9.330;2023-06-26T13:24:03;4.68;;;4.28;;
55603;SDS011;41468;48.838;9.330;2023-06-26T13:26:31;10.60;;;4.45;;
55603;SDS011;41468;48.838;9.330;2023-06-26T13:29:01;6.85;;;4.53;;
55603;SDS011;41468;48.838;9.330;2023-06-26T13:31:29;5.07;;;4.00;;
55603;SDS011;41468;48.838;9.330;2023-06-26T13:33:57;6.88;;;4.30;;
55603;SDS011;41468;48.838;9.330;2023-06-26T13:36:25;4.57;;;4.13;;
55603;SDS011;41468;48.838;9.330;2023-06-26T13:38:52;4.70;;;4.30;;
55603;SDS011;41468;48.838;9.330;2023-06-26T13:41:23;4.57;;;4.22;;
55603;SDS011;41468;48.838;9.330;2023-06-26T13:43:50;4.07;;;3.72;;
55603;SDS011;41468;48.838;9.330;2023-06-26T13:46:19;4.30;;;4.00;;
55603;SDS011;41468;48.838;9.330;2023-06-26T13:48:46;4.97;;;4.20;;
55603;SDS011;41468;48.838;9.330;2023-06-26T13:51:13;5.65;;;4.40;;
55603;SDS011;41468;48.838;9.330;2023-06-26T13:53:40;4.40;;;4.10;;
55603;SDS011;41468;48.838;9.330;2023-06-26T13:56:07;4.63;;;4.00;;
55603;SDS011;41468;48.838;9.330;2023-06-26T13:58:34;4.75;;;4.25;;
55603;SDS011;41468;48.838;9.330;2023-06-26T14:01:07;4.43;;;3.67;;
55603;SDS011;41468;48.838;9.330;2023-06-26T14:03:38;4.65;;;4.20;;
55603;SDS011;41468;48.838;9.330;2023-06-26T14:06:05;6.13;;;3.60;;
55603;SDS011;41468;48.838;9.330;2023-06-26T14:08:32;3.80;;;3.50;;
55603;SDS011;41468;48.838;9.330;2023-06-26T14:10:59;3.72;;;3.42;;
55603;SDS011;41468;48.838;9.330;2023-06-26T14:13:26;3.97;;;3.58;;
55603;SDS011;41468;48.838;9.330;2023-06-26T14:16:04;3.75;;;3.45;;
55603;SDS011;41468;48.838;9.330;2023-06-26T14:18:32;4.15;;;3.45;;
55603;SDS011;41468;48.838;9.330;2023-06-26T14:20:59;4.22;;;3.20;;
55603;SDS011;41468;48.838;9.330;2023-06-26T14:23:26;5.72;;;3.58;;
55603;SDS011;41468;48.838;9.330;2023-06-26T14:25:53;4.55;;;3.28;;
55603;SDS011;41468;48.838;9.330;2023-06-26T14:28:19;3.25;;;3.05;;
55603;SDS011;41468;48.838;9.330;2023-06-26T14:30:46;3.58;;;2.80;;
55603;SDS011;41468;48.838;9.330;2023-06-26T14:33:13;2.88;;;2.67;;
55603;SDS011;41468;48.838;9.330;2023-06-26T14:35:40;5.18;;;2.85;;
55603;SDS011;41468;48.838;9.330;2023-06-26T14:38:17;7.13;;;2.88;;
55603;SDS011;41468;48.838;9.330;2023-06-26T14:40:44;4.80;;;2.90;;
55603;SDS011;41468;48.838;9.330;2023-06-26T14:43:12;3.00;;;2.67;;
55603;SDS011;41468;48.838;9.330;2023-06-26T14:45:39;2.70;;;2.55;;
55603;SDS011;41468;48.838;9.330;2023-06-26T14:48:06;3.22;;;2.33;;
55603;SDS011;41468;48.838;9.330;2023-06-26T14:50:33;3.72;;;2.70;;
55603;SDS011;41468;48.838;9.330;2023-06-26T14:53:00;3.45;;;2.50;;
55603;SDS011;41468;48.838;9.330;2023-06-26T14:55:27;2.92;;;2.70;;
55603;SDS011;41468;48.838;9.330;2023-06-26T14:57:53;3.10;;;2.75;;
55603;SDS011;41468;48.838;9.330;2023-06-26T15:00:20;4.75;;;2.78;;
55603;SDS011;41468;48.838;9.330;2023-06-26T15:02:47;5.30;;;2.80;;
55603;SDS011;41468;48.838;9.330;2023-06-26T15:05:15;3.38;;;2.97;;
55603;SDS011;41468;48.838;9.330;2023-06-26T15:07:42;2.78;;;2.58;;
55603;SDS011;41468;48.838;9.330;2023-06-26T15:10:09;5.20;;;2.80;;
55603;SDS011;41468;48.838;9.330;2023-06-26T15:12:36;3.05;;;2.83;;
55603;SDS011;41468;48.838;9.330;2023-06-26T15:15:03;3.45;;;2.80;;
55603;SDS011;41468;48.838;9.330;2023-06-26T15:17:31;6.15;;;2.75;;
55603;SDS011;41468;48.838;9.330;2023-06-26T15:19:58;3.05;;;2.80;;
55603;SDS011;41468;48.838;9.330;2023-06-26T15:22:26;3.00;;;2.70;;
55603;SDS011;41468;48.838;9.330;2023-06-26T15:24:53;4.20;;;2.83;;
55603;SDS011;41468;48.838;9.330;2023-06-26T15:27:20;3.67;;;3.17;;
55603;SDS011;41468;48.838;9.330;2023-06-26T15:29:50;3.08;;;2.80;;
55603;SDS011;41468;48.838;9.330;2023-06-26T15:32:17;5.60;;;3.08;;
55603;SDS011;41468;48.838;9.330;2023-06-26T15:34:44;5.68;;;3.30;;
55603;SDS011;41468;48.838;9.330;2023-06-26T15:37:11;3.80;;;3.40;;
55603;SDS011;41468;48.838;9.330;2023-06-26T15:39:37;7.68;;;3.83;;
55603;SDS011;41468;48.838;9.330;2023-06-26T15:42:06;3.90;;;3.60;;
55603;SDS011;41468;48.838;9.330;2023-06-26T15:44:33;4.10;;;3.70;;
55603;SDS011;41468;48.838;9.330;2023-06-26T15:46:59;4.03;;;3.72;;
55603;SDS011;41468;48.838;9.330;2023-06-26T15:49:27;4.70;;;4.25;;